METARs

EEEI - Ämari Air Base

EEEI 201350Z 22021G31KT 9999 SCT032 21/14 Q1010 NOSIG

EEKA - Kärdla

EEKA 220750Z 21013G24KT 9999 SCT030 14/06 Q0997

EEKE - Kuressaare

EEKE 230950Z 28012KT 250V360 9999 VCSH SCT032CB 14/08 Q0999

EEPU - Pärnu

EEPU 230950Z 24010KT 200V270 9999 SCT021 13/10 Q0999 RERA

EETN - Lennart Meri Tallinn

EETN 231050Z 21008KT 9999 SCT030CB SCT050TCU 11/08 Q0998 TEMPO 5

EETU - Tartu

EETU 231050Z AUTO 22007KT 9999 SCT041/// BKN076/// 10/08 Q1001

Sign In

ATC Booking

currently no ATC Bookings...